Terminal Aerodrome Forecast
Issued by NWS Grand Forks, ND

Home | Current Version | Previous Version | Text Only | Print | Product List | Glossary Off
Versions: 1 2 3 4 5 6 7 8 9 10 11 12 13 14 15 16 17 18 19 20 21

000
FTUS43 KFGF 220540
TAFGFK
TAF
KGFK 220540Z 2206/2306 VRB03KT 3SM BR OVC003
     FM220800 VRB03KT 1SM -RA BR OVC003
     FM221200 36008KT 1SM BR OVC003
     FM221600 36012KT P6SM OVC003
     FM221900 36016G24KT P6SM OVC008
     FM222000 35016G24KT P6SM OVC010
     FM230200 35011KT P6SM BKN015
     FM230500 35009KT P6SM BKN020=

USA.gov is the U.S. government's official web portal to all federal, state and local government web resources and services.